This is the latest recevied weather packets stored in our database for station/object KC3UTO. If no packets are shown the sender has not sent any weather packets the latest 1 day(s).
| Time | Temp. | Humidity | Pressure | Rain* | Wind** | Luminosity | Snow |
|---|---|---|---|---|---|---|---|
| 1778037440 | 20.56° C | 50% | 1009.1 hPa | 0 mm | 0.89 m/s, 53° | 0 W/m² | - |
| 1778037138 | 20.56° C | 50% | 1009.3 hPa | 0 mm | 0 m/s | 0 W/m² | - |
| 1778036836 | 20.56° C | 50% | 1009.1 hPa | 0 mm | 1.34 m/s, 11° | 0 W/m² | - |
| 1778036533 | 20.56° C | 50% | 1009 hPa | 0 mm | 0.45 m/s, 35° | 0 W/m² | - |
| 1778036229 | 20.56° C | 49% | 1009.1 hPa | 0 mm | 0.45 m/s, 190° | 0 W/m² | - |
| 1778035926 | 21.11° C | 49% | 1009.2 hPa | 0 mm | 0 m/s | 0 W/m² | - |
| 1778035623 | 21.11° C | 48% | 1009.2 hPa | 0 mm | 0.45 m/s, 24° | 0 W/m² | - |
| 1778035319 | 21.11° C | 48% | 1009 hPa | 0 mm | 0.45 m/s, 31° | 0 W/m² | - |
| 1778035016 | 21.67° C | 47% | 1009.2 hPa | 0 mm | 0.89 m/s, 11° | 0 W/m² | - |
| 1778034713 | 21.67° C | 46% | 1009.1 hPa | 0 mm | 0 m/s | 0 W/m² | - |
| 1778034410 | 21.67° C | 45% | 1009.2 hPa | 0 mm | 0.89 m/s, 22° | 0 W/m² | - |
| 1778034108 | 21.67° C | 45% | 1009.1 hPa | 0 mm | 0.89 m/s, 334° | 0 W/m² | - |
| 1778033806 | 21.67° C | 45% | 1009.1 hPa | 0 mm | 0 m/s | 0 W/m² | - |
| 1778033502 | 22.22° C | 44% | 1009 hPa | 0 mm | 1.34 m/s, 246° | 0 W/m² | - |
| 1778033199 | 22.22° C | 44% | 1009.1 hPa | 0 mm | 0.89 m/s, 66° | 0 W/m² | - |
| 1778032897 | 22.22° C | 44% | 1009.2 hPa | 0 mm | 0.45 m/s, 1° | 0 W/m² | - |
| 1778032594 | 22.22° C | 44% | 1009 hPa | 0 mm | 0.89 m/s, 186° | 0 W/m² | - |
| 1778032291 | 22.22° C | 44% | 1008.9 hPa | 0 mm | 0.45 m/s, 10° | 0 W/m² | - |
| 1778031989 | 22.78° C | 43% | 1008.7 hPa | 0 mm | 0 m/s | 0 W/m² | - |
| 1778031684 | 22.78° C | 42% | 1008.8 hPa | 0 mm | 0 m/s | 0 W/m² | - |
| 1778031383 | 23.33° C | 41% | 1008.8 hPa | 0 mm | 0.89 m/s, 89° | 0 W/m² | - |
| 1778031079 | 23.33° C | 40% | 1008.9 hPa | 0 mm | 1.79 m/s, 240° | 0 W/m² | - |
| 1778030776 | 23.33° C | 41% | 1008.5 hPa | 0 mm | 0 m/s | 0 W/m² | - |
| 1778030472 | 23.33° C | 41% | 1008.4 hPa | 0 mm | 0.45 m/s, 13° | 0 W/m² | - |
| 1778030170 | 23.33° C | 40% | 1008.5 hPa | 0 mm | 0 m/s | 0 W/m² | - |
* Rain latest hour (hover to see other rain measurements)
** Current wind speed in m/s (hover to see current wind gust speed)